createdAt,value
2017-04-06T00:00:12.994Z,0
2017-04-06T00:01:22.891Z,0
2017-04-06T00:02:33.175Z,0
2017-04-06T00:03:43.103Z,0
2017-04-06T00:04:53.320Z,0
2017-04-06T00:06:03.367Z,0
2017-04-06T00:07:13.273Z,0
2017-04-06T00:08:22.869Z,0
2017-04-06T00:09:32.769Z,0
2017-04-06T00:10:42.989Z,0
2017-04-06T00:11:53.040Z,0
2017-04-06T00:13:02.941Z,0
2017-04-06T00:14:12.848Z,0
2017-04-06T00:15:23.096Z,0
2017-04-06T00:16:32.688Z,0
2017-04-06T00:17:42.598Z,0
2017-04-06T00:18:52.497Z,0
2017-04-06T00:20:02.392Z,0
2017-04-06T00:21:12.322Z,0
2017-04-06T00:22:22.577Z,0
2017-04-06T00:23:32.618Z,0
2017-04-06T00:24:42.247Z,0
2017-04-06T00:25:51.847Z,0
2017-04-06T00:27:02.072Z,0
2017-04-06T00:28:11.675Z,0
2017-04-06T00:29:22.031Z,0
2017-04-06T00:30:31.947Z,0
2017-04-06T00:31:41.852Z,0
2017-04-06T00:32:51.440Z,0
2017-04-06T00:34:01.341Z,0
2017-04-06T00:35:11.228Z,0
2017-04-06T00:36:20.209Z,0
2017-04-06T00:37:30.417Z,0
2017-04-06T00:38:40.010Z,0
2017-04-06T00:39:50.221Z,0
2017-04-06T00:41:00.579Z,0
2017-04-06T00:42:10.174Z,0
2017-04-06T00:43:20.077Z,0
2017-04-06T00:44:29.990Z,0
2017-04-06T00:45:40.196Z,0
2017-04-06T00:46:50.506Z,0
2017-04-06T00:48:00.133Z,0
2017-04-06T00:49:10.337Z,0
2017-04-06T00:50:19.928Z,0
2017-04-06T00:51:29.523Z,0
2017-04-06T00:52:39.229Z,0
2017-04-06T00:53:48.507Z,0
2017-04-06T00:54:58.104Z,0
2017-04-06T00:56:08.311Z,0
2017-04-06T00:57:17.918Z,0
2017-04-06T00:58:27.934Z,0
2017-04-06T00:59:37.518Z,0
2017-04-06T01:00:47.729Z,0
2017-04-06T01:01:57.624Z,0
2017-04-06T01:03:07.514Z,0
2017-04-06T01:04:17.259Z,0
2017-04-06T01:05:27.181Z,0
2017-04-06T01:06:37.077Z,0
2017-04-06T01:07:46.694Z,0
2017-04-06T01:08:56.903Z,0
2017-04-06T01:10:06.947Z,0
2017-04-06T01:11:16.849Z,0
2017-04-06T01:12:27.051Z,0
2017-04-06T01:13:36.347Z,0
2017-04-06T01:14:45.936Z,0
2017-04-06T01:15:56.238Z,0
2017-04-06T01:17:05.532Z,0
2017-04-06T01:18:14.815Z,0
2017-04-06T01:19:24.739Z,0
2017-04-06T01:20:34.642Z,0
2017-04-06T01:21:44.600Z,0
2017-04-06T01:22:54.205Z,0
2017-04-06T01:24:04.418Z,0
2017-04-06T01:25:14.310Z,0
2017-04-06T01:26:24.521Z,0
2017-04-06T01:27:34.987Z,0
2017-04-06T01:28:44.878Z,0
2017-04-06T01:29:54.785Z,0
2017-04-06T01:31:04.987Z,0
2017-04-06T01:32:14.575Z,0
2017-04-06T01:33:25.030Z,0
2017-04-06T01:34:34.319Z,0
2017-04-06T01:35:43.931Z,0
2017-04-06T01:36:53.522Z,0
2017-04-06T01:38:03.418Z,0
2017-04-06T01:39:13.880Z,0
2017-04-06T01:40:23.474Z,0
2017-04-06T01:41:33.059Z,0
2017-04-06T01:42:42.665Z,0
2017-04-06T01:43:52.582Z,0
2017-04-06T01:45:03.885Z,0
2017-04-06T01:46:13.476Z,0
2017-04-06T01:47:23.406Z,0
2017-04-06T01:48:33.306Z,0
2017-04-06T01:49:42.896Z,0
2017-04-06T01:50:53.857Z,0
2017-04-06T01:52:03.441Z,0
2017-04-06T01:53:13.351Z,0
2017-04-06T01:54:23.269Z,0
2017-04-06T01:55:33.159Z,0
2017-04-06T01:56:43.213Z,0
2017-04-06T01:57:53.110Z,0
2017-04-06T01:59:03.017Z,0
2017-04-06T02:00:13.229Z,0
2017-04-06T02:01:23.438Z,0
2017-04-06T02:02:33.892Z,0
2017-04-06T02:03:43.782Z,0
2017-04-06T02:04:53.680Z,0
2017-04-06T02:06:03.885Z,0
2017-04-06T02:07:14.101Z,0
2017-04-06T02:08:23.956Z,0
2017-04-06T02:09:34.172Z,0
2017-04-06T02:10:43.767Z,0
2017-04-06T02:11:53.366Z,0
2017-04-06T02:13:03.574Z,0
2017-04-06T02:14:14.485Z,0
2017-04-06T02:15:24.701Z,0
2017-04-06T02:16:34.599Z,0
2017-04-06T02:17:44.493Z,0
2017-04-06T02:18:53.793Z,0
2017-04-06T02:20:03.795Z,0
2017-04-06T02:21:13.388Z,0
2017-04-06T02:22:23.595Z,0
2017-04-06T02:23:32.882Z,0
2017-04-06T02:24:42.793Z,0
2017-04-06T02:25:52.691Z,0
2017-04-06T02:27:02.601Z,0
2017-04-06T02:28:12.806Z,0
2017-04-06T02:29:22.710Z,0
2017-04-06T02:30:32.640Z,0
2017-04-06T02:31:42.609Z,0
2017-04-06T02:32:52.530Z,0
2017-04-06T02:34:02.735Z,0
2017-04-06T02:35:12.323Z,0
2017-04-06T02:36:21.933Z,0
2017-04-06T02:37:31.976Z,0
2017-04-06T02:38:41.571Z,0
2017-04-06T02:39:51.469Z,0
2017-04-06T02:41:01.385Z,0
2017-04-06T02:42:11.594Z,0
2017-04-06T02:43:21.963Z,0
2017-04-06T02:44:31.548Z,0
2017-04-06T02:45:41.167Z,0
2017-04-06T02:46:50.768Z,0
2017-04-06T02:48:00.685Z,0
2017-04-06T02:49:10.676Z,0
2017-04-06T02:50:20.274Z,0
2017-04-06T02:51:30.476Z,0
2017-04-06T02:52:40.371Z,0
2017-04-06T02:53:50.267Z,0
2017-04-06T02:55:00.960Z,0
2017-04-06T02:56:11.177Z,0
2017-04-06T02:57:20.467Z,0
2017-04-06T02:58:30.086Z,0
2017-04-06T02:59:40.294Z,0
2017-04-06T03:00:50.655Z,0
2017-04-06T03:02:00.547Z,0
2017-04-06T03:03:10.440Z,0
2017-04-06T03:04:20.328Z,0
2017-04-06T03:05:29.942Z,0
2017-04-06T03:06:40.343Z,0
2017-04-06T03:07:50.234Z,0
2017-04-06T03:08:59.527Z,0
2017-04-06T03:10:09.432Z,0
2017-04-06T03:11:19.330Z,0
2017-04-06T03:12:29.691Z,0
2017-04-06T03:13:39.592Z,0
2017-04-06T03:14:49.187Z,0
2017-04-06T03:15:59.390Z,0
2017-04-06T03:17:09.600Z,0
2017-04-06T03:18:20.163Z,0
2017-04-06T03:19:29.753Z,0
2017-04-06T03:20:39.351Z,0
2017-04-06T03:21:49.567Z,0
2017-04-06T03:22:59.765Z,0
2017-04-06T03:24:10.124Z,0
2017-04-06T03:25:19.717Z,0
2017-04-06T03:26:29.624Z,0
2017-04-06T03:27:38.909Z,0
2017-04-06T03:28:48.817Z,0
2017-04-06T03:29:58.723Z,0
2017-04-06T03:31:08.927Z,0
2017-04-06T03:32:18.843Z,0
2017-04-06T03:33:28.757Z,0
2017-04-06T03:34:38.658Z,0
2017-04-06T03:35:48.195Z,0
2017-04-06T03:36:58.102Z,0
2017-04-06T03:38:08.004Z,0
2017-04-06T03:39:17.899Z,0
2017-04-06T03:40:28.091Z,0
2017-04-06T03:41:38.286Z,0
2017-04-06T03:42:48.484Z,0
2017-04-06T03:43:58.079Z,0
2017-04-06T03:45:07.673Z,0
2017-04-06T03:46:17.574Z,0
2017-04-06T03:47:28.094Z,0
2017-04-06T03:48:38.301Z,0
2017-04-06T03:49:48.496Z,0
2017-04-06T03:50:58.104Z,0
2017-04-06T03:52:08.393Z,0
2017-04-06T03:53:18.085Z,0
2017-04-06T03:54:28.301Z,0
2017-04-06T03:55:38.215Z,0
2017-04-06T03:56:48.120Z,0
2017-04-06T03:57:57.396Z,0
2017-04-06T03:59:07.092Z,0
2017-04-06T04:00:17.021Z,0
2017-04-06T04:01:26.612Z,0
2017-04-06T04:02:36.810Z,0
2017-04-06T04:03:46.708Z,0
2017-04-06T04:04:56.398Z,0
2017-04-06T04:06:06.295Z,0
2017-04-06T04:07:15.584Z,0
2017-04-06T04:08:25.809Z,0
2017-04-06T04:09:36.037Z,0
2017-04-06T04:10:47.297Z,0
2017-04-06T04:11:57.517Z,0
2017-04-06T04:13:07.755Z,0
2017-04-06T04:14:17.689Z,0
2017-04-06T04:15:27.289Z,0
2017-04-06T04:16:37.930Z,0
2017-04-06T04:17:47.522Z,0
2017-04-06T04:18:57.427Z,0
2017-04-06T04:20:07.029Z,0
2017-04-06T04:21:17.251Z,0
2017-04-06T04:22:28.507Z,0
2017-04-06T04:23:38.417Z,0
2017-04-06T04:24:48.317Z,0
2017-04-06T04:25:57.625Z,0
2017-04-06T04:27:07.550Z,0
2017-04-06T04:28:17.851Z,0
2017-04-06T04:29:28.049Z,0
2017-04-06T04:30:37.637Z,0
2017-04-06T04:31:47.843Z,0
2017-04-06T04:32:57.428Z,0
2017-04-06T04:34:07.785Z,0
2017-04-06T04:35:17.384Z,0
2017-04-06T04:36:26.374Z,0
2017-04-06T04:37:36.579Z,0
2017-04-06T04:38:46.177Z,0
2017-04-06T04:39:55.866Z,0
2017-04-06T04:41:05.469Z,0
2017-04-06T04:42:15.661Z,0
2017-04-06T04:43:25.556Z,0
2017-04-06T04:44:35.494Z,0
2017-04-06T04:45:45.381Z,0
2017-04-06T04:46:55.016Z,0
2017-04-06T04:48:05.289Z,0
2017-04-06T04:49:14.585Z,0
2017-04-06T04:50:24.493Z,0
2017-04-06T04:51:35.135Z,0
2017-04-06T04:52:45.054Z,0
2017-04-06T04:53:55.262Z,0
2017-04-06T04:55:05.184Z,0
2017-04-06T04:56:14.791Z,0
2017-04-06T04:57:25.370Z,0
2017-04-06T04:58:34.977Z,0
2017-04-06T04:59:44.574Z,0
2017-04-06T05:00:54.487Z,0
2017-04-06T05:02:04.430Z,0
2017-04-06T05:03:14.641Z,0
2017-04-06T05:04:24.241Z,0
2017-04-06T05:05:34.469Z,0
2017-04-06T05:06:44.414Z,0
2017-04-06T05:07:54.704Z,0
2017-04-06T05:09:05.182Z,0
2017-04-06T05:10:15.095Z,0
2017-04-06T05:11:25.317Z,0
2017-04-06T05:12:35.261Z,0
2017-04-06T05:13:44.284Z,0
2017-04-06T05:14:54.897Z,0
2017-04-06T05:16:04.820Z,0
2017-04-06T05:17:14.744Z,0
2017-04-06T05:18:24.655Z,0
2017-04-06T05:19:34.264Z,0
2017-04-06T05:20:44.161Z,0
2017-04-06T05:21:53.776Z,0
2017-04-06T05:23:02.845Z,0
2017-04-06T05:24:12.476Z,0
2017-04-06T05:25:22.406Z,0
2017-04-06T05:26:33.378Z,0
2017-04-06T05:27:43.595Z,0
2017-04-06T05:28:53.184Z,0
2017-04-06T05:30:02.494Z,0
2017-04-06T05:31:12.407Z,0
2017-04-06T05:32:22.630Z,0
2017-04-06T05:33:32.847Z,0
2017-04-06T05:34:43.102Z,0
2017-04-06T05:35:53.320Z,0
2017-04-06T05:37:02.931Z,0
2017-04-06T05:38:13.398Z,5
2017-04-06T05:39:23.603Z,5
2017-04-06T05:40:33.843Z,5
2017-04-06T05:41:44.068Z,5
2017-04-06T05:42:53.976Z,5
2017-04-06T05:44:03.681Z,5
2017-04-06T05:45:13.592Z,5
2017-04-06T05:46:23.194Z,5
2017-04-06T05:47:33.410Z,5
2017-04-06T05:48:42.704Z,5
2017-04-06T05:49:53.464Z,5
2017-04-06T05:51:03.089Z,5
2017-04-06T05:52:12.996Z,5
2017-04-06T05:53:22.592Z,5
2017-04-06T05:54:32.481Z,5
2017-04-06T05:55:42.710Z,5
2017-04-06T05:56:52.930Z,5
2017-04-06T05:58:02.858Z,5
2017-04-06T05:59:13.061Z,5
2017-04-06T06:00:23.748Z,5
2017-04-06T06:01:33.524Z,5
2017-04-06T06:02:43.743Z,0
2017-04-06T06:03:52.863Z,0
2017-04-06T06:05:02.764Z,0
2017-04-06T06:06:12.981Z,0
2017-04-06T06:07:24.046Z,5
2017-04-06T06:08:33.957Z,5
2017-04-06T06:09:43.867Z,5
2017-04-06T06:10:53.791Z,5
2017-04-06T06:12:03.738Z,10
2017-04-06T06:13:13.499Z,15
2017-04-06T06:14:23.436Z,15
2017-04-06T06:15:32.752Z,20
2017-04-06T06:16:42.684Z,25
2017-04-06T06:17:52.648Z,40
2017-04-06T06:19:02.119Z,40
2017-04-06T06:20:12.342Z,35
2017-04-06T06:21:22.282Z,30
2017-04-06T06:22:31.916Z,25
2017-04-06T06:23:41.521Z,25
2017-04-06T06:24:51.576Z,25
2017-04-06T06:26:01.474Z,25
2017-04-06T06:27:11.384Z,35
2017-04-06T06:28:21.586Z,30
2017-04-06T06:29:30.871Z,35
2017-04-06T06:30:41.071Z,40
2017-04-06T06:31:51.009Z,40
2017-04-06T06:33:00.934Z,40
2017-04-06T06:34:10.856Z,35
2017-04-06T06:35:20.771Z,35
2017-04-06T06:36:30.840Z,35
2017-04-06T06:37:40.444Z,35
2017-04-06T06:38:50.352Z,35
2017-04-06T06:40:00.256Z,35
2017-04-06T06:41:09.257Z,40
2017-04-06T06:42:19.793Z,45
2017-04-06T06:43:29.718Z,50
2017-04-06T06:44:39.351Z,50
2017-04-06T06:45:49.575Z,60
2017-04-06T06:46:58.870Z,60
2017-04-06T06:48:08.823Z,55
2017-04-06T06:49:18.432Z,40
2017-04-06T06:50:28.116Z,45
2017-04-06T06:51:38.413Z,55
2017-04-06T06:52:48.706Z,55
2017-04-06T06:53:58.072Z,55
2017-04-06T06:55:07.686Z,60
2017-04-06T06:56:16.985Z,45
2017-04-06T06:57:26.615Z,55
2017-04-06T06:58:36.556Z,60
2017-04-06T06:59:46.462Z,60
2017-04-06T07:00:56.363Z,60
2017-04-06T07:02:06.281Z,65
2017-04-06T07:03:16.488Z,70
2017-04-06T07:04:26.418Z,80
2017-04-06T07:05:36.329Z,80
2017-04-06T07:06:46.247Z,60
2017-04-06T07:07:56.188Z,50
2017-04-06T07:09:06.098Z,60
2017-04-06T07:10:16.014Z,70
2017-04-06T07:11:26.178Z,85
2017-04-06T07:12:35.796Z,85
2017-04-06T07:13:46.006Z,90
2017-04-06T07:14:55.936Z,100
2017-04-06T07:16:05.556Z,105
2017-04-06T07:17:15.506Z,90
2017-04-06T07:18:25.129Z,80
2017-04-06T07:19:35.053Z,85
2017-04-06T07:20:45.267Z,95
2017-04-06T07:21:55.490Z,105
2017-04-06T07:23:06.268Z,110
2017-04-06T07:24:16.183Z,90
2017-04-06T07:25:26.394Z,105
2017-04-06T07:26:36.633Z,130
2017-04-06T07:27:46.556Z,115
2017-04-06T07:28:56.264Z,65
2017-04-06T07:30:05.908Z,65
2017-04-06T07:31:15.516Z,35
2017-04-06T07:32:25.468Z,40
2017-04-06T07:33:34.775Z,40
2017-04-06T07:34:45.319Z,20
2017-04-06T07:35:55.243Z,25
2017-04-06T07:37:05.504Z,50
2017-04-06T07:38:15.422Z,70
2017-04-06T07:39:25.634Z,65
2017-04-06T07:40:36.088Z,65
2017-04-06T07:41:45.694Z,70
2017-04-06T07:42:55.901Z,80
2017-04-06T07:44:05.219Z,105
2017-04-06T07:45:15.150Z,110
2017-04-06T07:46:24.902Z,110
2017-04-06T07:47:34.815Z,100
2017-04-06T07:48:45.034Z,100
2017-04-06T07:49:55.334Z,80
2017-04-06T07:51:04.947Z,95
2017-04-06T07:52:14.394Z,95
2017-04-06T07:53:24.317Z,80
2017-04-06T07:54:34.220Z,65
2017-04-06T07:55:44.133Z,60
2017-04-06T07:56:54.063Z,80
2017-04-06T07:58:04.699Z,50
2017-04-06T07:59:14.627Z,45
2017-04-06T08:00:24.837Z,25
2017-04-06T08:01:34.777Z,25
2017-04-06T08:02:44.072Z,20
2017-04-06T08:03:53.832Z,15
2017-04-06T08:05:03.748Z,15
2017-04-06T08:06:13.668Z,15
2017-04-06T08:07:23.885Z,10
2017-04-06T08:08:33.814Z,10
2017-04-06T08:09:43.752Z,15
2017-04-06T08:10:53.364Z,15
2017-04-06T08:12:03.279Z,15
2017-04-06T08:13:13.197Z,20
2017-04-06T08:14:22.494Z,20
2017-04-06T08:15:32.399Z,20
2017-04-06T08:16:42.370Z,20
2017-04-06T08:17:52.275Z,20
2017-04-06T08:19:02.190Z,25
2017-04-06T08:20:11.835Z,35
2017-04-06T08:21:22.062Z,35
2017-04-06T08:22:31.366Z,40
2017-04-06T08:23:40.969Z,50
2017-04-06T08:24:51.190Z,70
2017-04-06T08:26:01.102Z,80
2017-04-06T08:27:11.126Z,85
2017-04-06T08:28:21.034Z,105
2017-04-06T08:29:30.955Z,110
2017-04-06T08:30:40.963Z,105
2017-04-06T08:31:50.578Z,85
2017-04-06T08:33:01.023Z,70
2017-04-06T08:34:11.090Z,70
2017-04-06T08:35:21.022Z,65
2017-04-06T08:36:30.697Z,55
2017-04-06T08:37:40.350Z,55
2017-04-06T08:38:51.277Z,50
2017-04-06T08:40:01.240Z,45
2017-04-06T08:41:11.581Z,40
2017-04-06T08:42:21.189Z,35
2017-04-06T08:43:30.487Z,30
2017-04-06T08:44:40.870Z,25
2017-04-06T08:45:50.809Z,20
2017-04-06T08:47:01.030Z,20
2017-04-06T08:48:10.661Z,15
2017-04-06T08:49:20.274Z,15
2017-04-06T08:50:31.258Z,15
2017-04-06T08:51:40.860Z,15
2017-04-06T08:52:50.480Z,15
2017-04-06T08:54:00.405Z,15
2017-04-06T08:55:10.321Z,15
2017-04-06T08:56:20.175Z,15
2017-04-06T08:57:29.788Z,20
2017-04-06T08:58:39.713Z,25
2017-04-06T08:59:49.930Z,35
2017-04-06T09:01:00.139Z,40
2017-04-06T09:02:10.238Z,45
2017-04-06T09:03:20.244Z,40
2017-04-06T09:04:29.849Z,40
2017-04-06T09:05:40.086Z,45
2017-04-06T09:06:49.729Z,40
2017-04-06T09:07:59.532Z,40
2017-04-06T09:09:08.845Z,45
2017-04-06T09:10:18.261Z,45
2017-04-06T09:11:28.171Z,45
2017-04-06T09:12:38.375Z,40
2017-04-06T09:13:47.972Z,35
2017-04-06T09:14:57.888Z,40
2017-04-06T09:16:07.495Z,40
2017-04-06T09:17:17.533Z,45
2017-04-06T09:18:26.825Z,45
2017-04-06T09:19:37.194Z,45
2017-04-06T09:20:47.128Z,45
2017-04-06T09:21:56.735Z,45
2017-04-06T09:23:05.736Z,50
2017-04-06T09:24:15.982Z,45
2017-04-06T09:25:26.072Z,50
2017-04-06T09:26:35.731Z,50
2017-04-06T09:27:45.962Z,50
2017-04-06T09:28:55.605Z,50
2017-04-06T09:30:05.889Z,55
2017-04-06T09:31:15.858Z,50
2017-04-06T09:32:25.797Z,50
2017-04-06T09:33:35.748Z,50
2017-04-06T09:34:45.366Z,45
2017-04-06T09:35:55.306Z,45
2017-04-06T09:37:05.575Z,50
2017-04-06T09:38:15.207Z,50
2017-04-06T09:39:25.294Z,50
2017-04-06T09:40:35.210Z,55
2017-04-06T09:41:45.114Z,55
2017-04-06T09:42:55.287Z,60
2017-04-06T09:44:05.216Z,65
2017-04-06T09:45:14.928Z,70
2017-04-06T09:46:24.596Z,75
2017-04-06T09:47:34.509Z,80
2017-04-06T09:48:44.670Z,85
2017-04-06T09:49:54.682Z,95
2017-04-06T09:51:04.808Z,85
2017-04-06T09:52:14.726Z,85
2017-04-06T09:53:24.654Z,80
2017-04-06T09:54:34.444Z,80
2017-04-06T09:55:44.398Z,75
2017-04-06T09:56:54.449Z,85
2017-04-06T09:58:04.770Z,85
2017-04-06T09:59:14.756Z,85
2017-04-06T10:00:24.665Z,80
2017-04-06T10:01:34.306Z,80
2017-04-06T10:02:43.733Z,85
2017-04-06T10:03:53.639Z,80
2017-04-06T10:05:03.887Z,70
2017-04-06T10:06:14.069Z,60
2017-04-06T10:07:24.453Z,50
2017-04-06T10:08:34.114Z,50
2017-04-06T10:09:43.888Z,45
2017-04-06T10:10:53.362Z,45
2017-04-06T10:12:03.903Z,40
2017-04-06T10:13:13.513Z,40
2017-04-06T10:14:23.752Z,40
2017-04-06T10:15:33.499Z,45
2017-04-06T10:16:43.455Z,45
2017-04-06T10:17:53.351Z,45
2017-04-06T10:19:02.970Z,40
2017-04-06T10:20:12.570Z,40
2017-04-06T10:21:22.558Z,55
2017-04-06T10:22:32.812Z,65
2017-04-06T10:23:42.588Z,65
2017-04-06T10:24:52.522Z,70
2017-04-06T10:26:02.768Z,70
2017-04-06T10:27:12.709Z,75
2017-04-06T10:28:22.340Z,75
2017-04-06T10:29:32.628Z,75
2017-04-06T10:30:42.556Z,80
2017-04-06T10:31:52.479Z,85
2017-04-06T10:33:02.363Z,85
2017-04-06T10:34:12.677Z,80
2017-04-06T10:35:23.806Z,80
2017-04-06T10:36:33.105Z,75
2017-04-06T10:37:43.042Z,70
2017-04-06T10:38:53.258Z,65
2017-04-06T10:40:02.862Z,60
2017-04-06T10:41:13.334Z,50
2017-04-06T10:42:23.253Z,45
2017-04-06T10:43:32.554Z,40
2017-04-06T10:44:42.782Z,40
2017-04-06T10:45:52.711Z,45
2017-04-06T10:47:02.859Z,50
2017-04-06T10:48:12.774Z,50
2017-04-06T10:49:22.697Z,55
2017-04-06T10:50:32.921Z,50
2017-04-06T10:51:43.160Z,45
2017-04-06T10:52:52.623Z,50
2017-04-06T10:54:02.248Z,50
2017-04-06T10:55:11.553Z,50
2017-04-06T10:56:21.475Z,40
2017-04-06T10:57:31.373Z,35
2017-04-06T10:58:41.443Z,45
2017-04-06T10:59:50.453Z,50
2017-04-06T11:01:00.363Z,45
2017-04-06T11:02:10.614Z,45
2017-04-06T11:03:20.530Z,45
2017-04-06T11:04:31.102Z,55
2017-04-06T11:05:40.401Z,65
2017-04-06T11:06:50.631Z,65
2017-04-06T11:08:00.854Z,65
2017-04-06T11:09:10.769Z,60
2017-04-06T11:10:20.628Z,55
2017-04-06T11:11:30.842Z,60
2017-04-06T11:12:41.427Z,65
2017-04-06T11:13:51.039Z,65
2017-04-06T11:15:01.262Z,70
2017-04-06T11:16:11.643Z,75
2017-04-06T11:17:21.265Z,80
2017-04-06T11:18:30.893Z,75
2017-04-06T11:19:40.798Z,70
2017-04-06T11:20:50.717Z,65
2017-04-06T11:22:00.977Z,70
2017-04-06T11:23:10.883Z,75
2017-04-06T11:24:21.112Z,75
2017-04-06T11:25:31.018Z,70
2017-04-06T11:26:40.966Z,75
2017-04-06T11:27:50.721Z,80
2017-04-06T11:29:00.932Z,75
2017-04-06T11:30:10.526Z,70
2017-04-06T11:31:20.124Z,65
2017-04-06T11:32:30.046Z,60
2017-04-06T11:33:40.596Z,65
2017-04-06T11:34:50.510Z,65
2017-04-06T11:36:00.113Z,65
2017-04-06T11:37:10.043Z,75
2017-04-06T11:38:20.282Z,75
2017-04-06T11:39:30.531Z,75
2017-04-06T11:40:41.677Z,70
2017-04-06T11:41:51.572Z,65
2017-04-06T11:43:01.515Z,65
2017-04-06T11:44:11.436Z,70
2017-04-06T11:45:21.342Z,65
2017-04-06T11:46:31.251Z,60
2017-04-06T11:47:40.870Z,55
2017-04-06T11:48:50.786Z,65
2017-04-06T11:50:01.008Z,65
2017-04-06T11:51:10.567Z,65
2017-04-06T11:52:20.476Z,60
2017-04-06T11:53:30.078Z,55
2017-04-06T11:54:40.343Z,55
2017-04-06T11:55:50.602Z,65
2017-04-06T11:57:01.092Z,70
2017-04-06T11:58:11.055Z,70
2017-04-06T11:59:20.988Z,65
2017-04-06T12:00:31.000Z,60
2017-04-06T12:01:40.477Z,55
2017-04-06T12:02:50.381Z,60
2017-04-06T12:04:00.339Z,65
2017-04-06T12:05:10.059Z,65
2017-04-06T12:06:19.664Z,65
2017-04-06T12:07:29.901Z,60
2017-04-06T12:08:40.631Z,55
2017-04-06T12:09:50.916Z,55
2017-04-06T12:11:00.836Z,50
2017-04-06T12:12:10.755Z,50
2017-04-06T12:13:20.689Z,50
2017-04-06T12:14:31.048Z,50
2017-04-06T12:15:40.946Z,45
2017-04-06T12:16:51.154Z,45
2017-04-06T12:18:01.377Z,40
2017-04-06T12:19:11.603Z,40
2017-04-06T12:20:21.872Z,40
2017-04-06T12:21:31.468Z,40
2017-04-06T12:22:41.392Z,40
2017-04-06T12:23:51.608Z,45
2017-04-06T12:25:01.832Z,55
2017-04-06T12:26:12.103Z,50
2017-04-06T12:27:21.731Z,45
2017-04-06T12:28:31.336Z,55
2017-04-06T12:29:40.941Z,60
2017-04-06T12:30:50.862Z,70
2017-04-06T12:32:00.943Z,65
2017-04-06T12:33:11.216Z,65
2017-04-06T12:34:21.126Z,55
2017-04-06T12:35:31.083Z,50
2017-04-06T12:36:41.001Z,50
2017-04-06T12:37:51.324Z,50
2017-04-06T12:39:01.233Z,50
2017-04-06T12:40:11.468Z,45
2017-04-06T12:41:21.727Z,45
2017-04-06T12:42:31.646Z,45
2017-04-06T12:43:41.970Z,45
2017-04-06T12:44:51.910Z,50
2017-04-06T12:46:01.847Z,55
2017-04-06T12:47:12.102Z,55
2017-04-06T12:48:21.746Z,50
2017-04-06T12:49:32.372Z,45
2017-04-06T12:50:41.983Z,40
2017-04-06T12:51:51.898Z,35
2017-04-06T12:53:01.813Z,35
2017-04-06T12:54:12.039Z,30
2017-04-06T12:55:22.083Z,30
2017-04-06T12:56:32.303Z,35
2017-04-06T12:57:41.911Z,40
2017-04-06T12:58:51.830Z,45
2017-04-06T13:00:01.757Z,55
2017-04-06T13:01:12.055Z,65
2017-04-06T13:02:21.669Z,65
2017-04-06T13:03:31.910Z,55
2017-04-06T13:04:41.828Z,45
2017-04-06T13:05:51.129Z,40
2017-04-06T13:07:00.538Z,35
2017-04-06T13:08:10.477Z,35
2017-04-06T13:09:20.095Z,35
2017-04-06T13:10:30.323Z,35
2017-04-06T13:11:39.630Z,40
2017-04-06T13:12:49.532Z,40
2017-04-06T13:13:59.769Z,45
2017-04-06T13:15:09.674Z,45
2017-04-06T13:16:19.896Z,50
2017-04-06T13:17:29.505Z,50
2017-04-06T13:18:39.411Z,55
2017-04-06T13:19:49.555Z,55
2017-04-06T13:20:59.872Z,50
2017-04-06T13:22:10.176Z,55
2017-04-06T13:23:20.139Z,55
2017-04-06T13:24:29.868Z,55
2017-04-06T13:25:38.853Z,55
2017-04-06T13:26:48.792Z,50
2017-04-06T13:27:58.699Z,40
2017-04-06T13:29:08.668Z,35
2017-04-06T13:30:18.935Z,40
2017-04-06T13:31:28.850Z,45
2017-04-06T13:32:39.124Z,45
2017-04-06T13:33:49.125Z,50
2017-04-06T13:34:59.044Z,55
2017-04-06T13:36:09.413Z,55
2017-04-06T13:37:19.358Z,50
2017-04-06T13:38:29.271Z,40
2017-04-06T13:39:38.994Z,35
2017-04-06T13:40:48.940Z,35
2017-04-06T13:41:58.599Z,30
2017-04-06T13:43:08.824Z,35
2017-04-06T13:44:18.735Z,30
2017-04-06T13:45:28.351Z,30
2017-04-06T13:46:38.263Z,30
2017-04-06T13:47:48.490Z,35
2017-04-06T13:48:58.420Z,40
2017-04-06T13:50:08.719Z,40
2017-04-06T13:51:18.729Z,35
2017-04-06T13:52:28.983Z,30
2017-04-06T13:53:39.058Z,30
2017-04-06T13:54:49.358Z,30
2017-04-06T13:55:58.804Z,30
2017-04-06T13:57:08.923Z,35
2017-04-06T13:58:18.583Z,35
2017-04-06T13:59:28.779Z,35
2017-04-06T14:00:38.554Z,30
2017-04-06T14:01:48.181Z,35
2017-04-06T14:02:57.619Z,40
2017-04-06T14:04:07.286Z,40
2017-04-06T14:05:17.365Z,35
2017-04-06T14:06:26.968Z,35
2017-04-06T14:07:36.580Z,40
2017-04-06T14:08:46.839Z,40
2017-04-06T14:09:57.095Z,40
2017-04-06T14:11:07.618Z,40
2017-04-06T14:12:17.547Z,35
2017-04-06T14:13:27.527Z,35
2017-04-06T14:14:37.175Z,35
2017-04-06T14:15:46.990Z,45
2017-04-06T14:16:58.282Z,45
2017-04-06T14:18:07.892Z,40
2017-04-06T14:19:17.846Z,40
2017-04-06T14:20:28.078Z,45
2017-04-06T14:21:38.004Z,40
2017-04-06T14:22:48.308Z,35
2017-04-06T14:23:58.164Z,30
2017-04-06T14:25:07.840Z,30
2017-04-06T14:26:17.472Z,25
2017-04-06T14:27:27.063Z,30
2017-04-06T14:28:35.990Z,25
2017-04-06T14:29:45.895Z,25
2017-04-06T14:30:55.813Z,25
2017-04-06T14:32:05.434Z,30
2017-04-06T14:33:15.039Z,35
2017-04-06T14:34:24.684Z,40
2017-04-06T14:35:34.613Z,35
2017-04-06T14:36:44.219Z,30
2017-04-06T14:37:54.436Z,25
2017-04-06T14:39:04.047Z,25
2017-04-06T14:40:14.213Z,30
2017-04-06T14:41:24.154Z,30
2017-04-06T14:42:34.077Z,40
2017-04-06T14:43:43.986Z,40
2017-04-06T14:44:53.281Z,45
2017-04-06T14:46:03.801Z,45
2017-04-06T14:47:13.412Z,40
2017-04-06T14:48:22.711Z,30
2017-04-06T14:49:32.321Z,30
2017-04-06T14:50:42.537Z,25
2017-04-06T14:51:52.698Z,25
2017-04-06T14:53:02.945Z,25
2017-04-06T14:54:12.568Z,20
2017-04-06T14:55:22.823Z,20
2017-04-06T14:56:32.138Z,20
2017-04-06T14:57:42.643Z,25
2017-04-06T14:58:52.552Z,25
2017-04-06T15:00:01.549Z,25
2017-04-06T15:01:11.160Z,30
2017-04-06T15:02:21.072Z,30
2017-04-06T15:03:31.436Z,30
2017-04-06T15:04:41.353Z,30
2017-04-06T15:05:50.650Z,30
2017-04-06T15:07:00.571Z,35
2017-04-06T15:08:10.790Z,30
2017-04-06T15:09:21.055Z,30
2017-04-06T15:10:30.978Z,30
2017-04-06T15:11:40.895Z,25
2017-04-06T15:12:51.123Z,20
2017-04-06T15:14:01.362Z,15
2017-04-06T15:15:11.304Z,15
2017-04-06T15:16:21.526Z,20
2017-04-06T15:17:31.137Z,20
2017-04-06T15:18:41.053Z,25
2017-04-06T15:19:51.652Z,25
2017-04-06T15:21:01.358Z,30
2017-04-06T15:22:11.278Z,30
2017-04-06T15:23:20.893Z,30
2017-04-06T15:24:30.523Z,30
2017-04-06T15:25:40.745Z,30
2017-04-06T15:26:50.301Z,25
2017-04-06T15:28:00.533Z,25
2017-04-06T15:29:10.804Z,25
2017-04-06T15:30:20.727Z,25
2017-04-06T15:31:30.658Z,25
2017-04-06T15:32:40.964Z,20
2017-04-06T15:33:50.274Z,20
2017-04-06T15:35:00.189Z,20
2017-04-06T15:36:10.110Z,20
2017-04-06T15:37:20.035Z,20
2017-04-06T15:38:30.189Z,20
2017-04-06T15:39:39.506Z,20
2017-04-06T15:40:49.726Z,20
2017-04-06T15:41:59.652Z,20
2017-04-06T15:43:09.907Z,20
2017-04-06T15:44:20.204Z,20
2017-04-06T15:45:29.801Z,20
2017-04-06T15:46:39.921Z,20
2017-04-06T15:47:49.849Z,20
2017-04-06T15:48:59.470Z,20
2017-04-06T15:50:09.690Z,20
2017-04-06T15:51:19.605Z,20
2017-04-06T15:52:29.519Z,20
2017-04-06T15:53:38.826Z,20
2017-04-06T15:54:48.425Z,20
2017-04-06T15:55:58.511Z,20
2017-04-06T15:57:08.933Z,20
2017-04-06T15:58:18.848Z,20
2017-04-06T15:59:28.753Z,20
2017-04-06T16:00:38.662Z,20
2017-04-06T16:01:48.599Z,20
2017-04-06T16:02:58.211Z,20
2017-04-06T16:04:07.830Z,20
2017-04-06T16:05:17.756Z,20
2017-04-06T16:06:27.061Z,20
2017-04-06T16:07:36.898Z,20
2017-04-06T16:08:45.884Z,20
2017-04-06T16:09:56.463Z,20
2017-04-06T16:11:06.365Z,20
2017-04-06T16:12:15.958Z,20
2017-04-06T16:13:25.972Z,20
2017-04-06T16:14:35.880Z,20
2017-04-06T16:15:45.781Z,20
2017-04-06T16:16:55.404Z,20
2017-04-06T16:18:05.044Z,25
2017-04-06T16:19:15.547Z,25
2017-04-06T16:20:25.147Z,25
2017-04-06T16:21:35.354Z,25
2017-04-06T16:22:45.564Z,25
2017-04-06T16:23:55.801Z,25
2017-04-06T16:25:06.163Z,20
2017-04-06T16:26:16.065Z,20
2017-04-06T16:27:25.676Z,20
2017-04-06T16:28:35.883Z,20
2017-04-06T16:29:46.098Z,20
2017-04-06T16:30:55.632Z,20
2017-04-06T16:32:05.240Z,15
2017-04-06T16:33:15.180Z,10
2017-04-06T16:34:24.810Z,10
2017-04-06T16:35:35.026Z,10
2017-04-06T16:36:45.050Z,15
2017-04-06T16:37:54.338Z,15
2017-04-06T16:39:03.625Z,10
2017-04-06T16:40:12.622Z,10
2017-04-06T16:41:22.525Z,15
2017-04-06T16:42:32.215Z,10
2017-04-06T16:43:42.121Z,10
2017-04-06T16:44:52.201Z,5
2017-04-06T16:46:03.058Z,5
2017-04-06T16:47:13.292Z,5
2017-04-06T16:48:23.451Z,5
2017-04-06T16:49:33.047Z,5